LGKF/EFL METAR and TAF weather

Enter ICAO airport designator
Station Type Date Time Source
LGKF METAR 2024/06/15 20:50 UTC NOAA

LGKF 152050Z 31009KT CAVOK 21/19 Q1013


Station Type Date Time Source
LGKF Decoded METAR 2024/06/15 20:50 UTC NOAA

Kefalhnia Airport , Greece (LGKF) 38-07N 020-30E 22M
Jun 15, 2024 - 04:50 PM EDT / 2024.06.15 2050 UTC
Wind: from the NW (310 degrees) at 10 MPH (9 KT):0
Visibility: greater than 7 mile(s):0
Temperature: 69 F (21 C)
Dew Point: 66 F (19 C)
Relative Humidity: 88%
Pressure (altimeter): 29.91 in. Hg (1013 hPa)
ob: LGKF 152050Z 31009KT CAVOK 21/19 Q1013
cycle: 21

Station Type Date Time Source
LGKF TAF 2011/03/20 15:06 UTC NOAA